Flood From: 24-02-2018 06:00 Until: 25-02-2018 06:00 warning for: Flood Level: Yellow info button

Although rather usual in this region, locally or potentially dangerous phenomena are expected. (such as local winds, summer thunderstorms, rising streams or high waves) Be aware and pay attention to the latest weather updates, especially if you carry out activities exposed to weather or close to a stream or shoreline. 


Meteo18 Weather Cam more information Meteo18 Weather Cam


Thunder radar more information blitzortung!


Rain radar more information rain snow radar


Visit our other weather sites:

Template documentation
and downloads

And another site



Weather Underground History page Text

Daily Summary for October 18, 2017 Units:  Metric    English   Both
« Previous Day
Next Day »
Daily Weekly Monthly Yearly Custom
  High: Low: Average:
Temperature: -17.8 °C -12.9 °C -9.6 °C
Dew Point: -17.8 °C -13.9 °C -12.1 °C
Humidity: Humidity % 50 % 75 %
Wind Speed: 0 km/h 0 km/h 2.3 km/h
Wind Gust: 0 km/h - -
Wind:- - ESE
Pressure: 0 hPa 34246 hPa -
Precipitation: 0 mm    
Historical Graphs
 
 
Tabular Data for October 18, 2017
Time Temperature Dew Point Pressure Wind Wind Speed Wind Gust Humidity Rainfall Rate (Hourly)
-17.8 °C -17.8 °C 0 hPa Calm     Humidity % 0 mm
00:02 -10.9 °C -13 °C 34442.4 hPa Calm   7.7 km/h 78 % 0 mm
00:12 -11.3 °C -13.2 °C 34442.4 hPa Calm   7.7 km/h 79 % 0 mm
00:17 -11.6 °C -13.3 °C 34442.4 hPa Calm   2.6 km/h 81 % 0 mm
00:22 -11.7 °C -13.3 °C 34442.4 hPa Calm   2.6 km/h 83 % 0 mm
00:32 -11.7 °C -13.1 °C 34442.4 hPa Calm   2.6 km/h 84 % 0 mm
00:42 -11.7 °C -13.2 °C 34442.4 hPa Calm     84 % 0 mm
00:52 -11.8 °C -13.1 °C 34442.4 hPa Calm   2.6 km/h 85 % 0 mm
00:57 -11.8 °C -13.2 °C 34442.4 hPa Calm   2.6 km/h 85 % 0 mm
01:02 -11.9 °C -13.2 °C 34442.4 hPa Calm   2.6 km/h 86 % 0 mm
01:07 -11.9 °C -13.1 °C 34442.4 hPa Calm   2.6 km/h 86 % 0 mm
01:12 -11.9 °C -13.1 °C 34442.4 hPa Calm   2.6 km/h 86 % 0 mm
01:17 -11.9 °C -13.1 °C 34442.4 hPa NNE 2.6 km/h 2.6 km/h 86 % 0 mm
01:22 -11.8 °C -13.1 °C 34442.4 hPa Calm   2.6 km/h 86 % 0 mm
01:32 -11.8 °C -13.1 °C 34428.8 hPa Calm   2.6 km/h 86 % 0 mm
01:37 -11.8 °C -13.1 °C 34442.4 hPa Calm   2.6 km/h 86 % 0 mm
01:42 -12 °C -13.3 °C 34442.4 hPa NNE 2.6 km/h 2.6 km/h 85 % 0 mm
01:47 -12.2 °C -13.4 °C 34442.4 hPa Calm   5.1 km/h 86 % 0 mm
01:52 -12.3 °C -13.4 °C 34442.4 hPa Calm   5.1 km/h 87 % 0 mm
02:02 -12.2 °C -13.3 °C 34442.4 hPa Calm   7.7 km/h 87 % 0 mm
02:12 -12.3 °C -13.4 °C 34442.4 hPa WNW 2.6 km/h 7.7 km/h 87 % 0 mm
02:17 -12.4 °C -13.4 °C 34442.4 hPa Calm   2.6 km/h 88 % 0 mm
02:22 -12.3 °C -13.2 °C 34442.4 hPa Calm   2.6 km/h 89 % 0 mm
02:27 -12.2 °C -13.2 °C 34442.4 hPa North 2.6 km/h 2.6 km/h 88 % 0 mm
02:32 -12.1 °C -13.3 °C 34428.8 hPa Calm   5.1 km/h 87 % 0 mm
02:42 -12.2 °C -13.3 °C 34442.4 hPa Calm   5.1 km/h 87 % 0 mm
02:47 -12.3 °C -13.3 °C 34428.8 hPa Calm   2.6 km/h 88 % 0 mm
02:52 -12.3 °C -13.3 °C 34428.8 hPa WNW 2.6 km/h 2.6 km/h 89 % 0 mm
02:57 -12.3 °C -13.2 °C 34442.4 hPa WNW 5.1 km/h 5.1 km/h 90 % 0 mm
03:02 -12.3 °C -13.2 °C 34442.4 hPa Calm   5.1 km/h 90 % 0 mm
03:12 -12.1 °C -13.1 °C 34428.8 hPa Calm   5.1 km/h 89 % 0 mm
03:17 -12.1 °C -13.2 °C 34442.4 hPa Calm   5.1 km/h 88 % 0 mm
03:22 -12.2 °C -13.3 °C 34428.8 hPa Calm     88 % 0 mm
03:27 -12.3 °C -13.3 °C 34442.4 hPa Calm   2.6 km/h 89 % 0 mm
03:32 -12.3 °C -13.2 °C 34442.4 hPa Calm   2.6 km/h 90 % 0 mm
03:37 -12.2 °C -13.2 °C 34442.4 hPa Calm   2.6 km/h 89 % 0 mm
03:42 -12.2 °C -13.1 °C 34428.8 hPa Calm   2.6 km/h 89 % 0 mm
03:47 -12.2 °C -13.2 °C 34442.4 hPa Calm   2.6 km/h 88 % 0 mm
03:52 -12.3 °C -13.3 °C 34428.8 hPa Calm   2.6 km/h 88 % 0 mm
03:57 -12.3 °C -13.3 °C 34428.8 hPa Calm   2.6 km/h 88 % 0 mm
04:02 -12.2 °C -13.3 °C 34428.8 hPa Calm   2.6 km/h 87 % 0 mm
04:12 -12.1 °C -13.3 °C 34428.8 hPa Calm   2.6 km/h 87 % 0 mm
04:17 -12.1 °C -13.3 °C 34418.7 hPa Calm     86 % 0 mm
04:22 -12.1 °C -13.4 °C 34428.8 hPa North 2.6 km/h   85 % 0 mm
04:27 -12.1 °C -13.3 °C 34418.7 hPa Calm     86 % 0 mm
04:32 -12.1 °C -13.3 °C 34418.7 hPa Calm   2.6 km/h 86 % 0 mm
04:37 -12.1 °C -13.3 °C 34418.7 hPa Calm   2.6 km/h 86 % 0 mm
04:42 -12.2 °C -13.4 °C 34418.7 hPa Calm   2.6 km/h 86 % 0 mm
04:47 -12.3 °C -13.4 °C 34418.7 hPa Calm   2.6 km/h 87 % 0 mm
04:52 -12.3 °C -13.4 °C 34418.7 hPa North 2.6 km/h 2.6 km/h 87 % 0 mm
05:02 -12.2 °C -13.4 °C 34418.7 hPa Calm   2.6 km/h 87 % 0 mm
05:27 -12.3 °C -13.5 °C 34405.1 hPa Calm   2.6 km/h 86 % 0 mm
05:32 -12.1 °C -13.7 °C 34405.1 hPa Calm   2.6 km/h 83 % 0 mm
05:37 -12.3 °C -13.8 °C 34405.1 hPa Calm   2.6 km/h 84 % 0 mm
05:42 -12.4 °C -13.7 °C 34405.1 hPa Calm   2.6 km/h 86 % 0 mm
05:47 -12.4 °C -13.7 °C 34405.1 hPa Calm   2.6 km/h 86 % 0 mm
05:57 -12.4 °C -13.7 °C 34405.1 hPa Calm   2.6 km/h 86 % 0 mm
06:02 -12.6 °C -13.8 °C 34405.1 hPa Calm   2.6 km/h 86 % 0 mm
06:07 -12.4 °C -13.6 °C 34405.1 hPa Calm   5.1 km/h 86 % 0 mm
06:12 -12.6 °C -13.8 °C 34405.1 hPa Calm   5.1 km/h 86 % 0 mm
06:17 -12.7 °C -13.8 °C 34405.1 hPa NW 2.6 km/h 5.1 km/h 87 % 0 mm
06:22 -12.7 °C -13.7 °C 34405.1 hPa Calm   5.1 km/h 88 % 0 mm
06:32 -12.9 °C -13.8 °C 34405.1 hPa Calm   5.1 km/h 89 % 0 mm
06:42 -12.8 °C -13.8 °C 34405.1 hPa WNW 2.6 km/h 5.1 km/h 88 % 0 mm
06:47 -12.9 °C -13.8 °C 34405.1 hPa Calm   2.6 km/h 89 % 0 mm
06:52 -12.7 °C -13.8 °C 34395 hPa North 2.6 km/h 2.6 km/h 88 % 0 mm
06:57 -12.8 °C -13.8 °C 34405.1 hPa Calm   2.6 km/h 88 % 0 mm
07:02 -12.8 °C -13.9 °C 34405.1 hPa Calm   2.6 km/h 87 % 0 mm
07:07 -12.9 °C -13.9 °C 34395 hPa Calm   2.6 km/h 88 % 0 mm
07:12 -12.9 °C -13.8 °C 34395 hPa Calm   2.6 km/h 89 % 0 mm
07:17 -12.8 °C -13.9 °C 34395 hPa Calm   2.6 km/h 88 % 0 mm
07:22 -12.9 °C -13.8 °C 34395 hPa NW 2.6 km/h 2.6 km/h 89 % 0 mm
07:32 -12.7 °C -13.9 °C 34395 hPa Calm   2.6 km/h 86 % 0 mm
07:42 -12.9 °C -13.8 °C 34395 hPa Calm   2.6 km/h 89 % 0 mm
07:47 -12.9 °C -13.8 °C 34395 hPa North 2.6 km/h 2.6 km/h 90 % 0 mm
07:52 -12.8 °C -13.8 °C 34395 hPa Calm   2.6 km/h 89 % 0 mm
07:57 -12.8 °C -13.8 °C 34395 hPa Calm   2.6 km/h 89 % 0 mm
08:02 -12.8 °C -13.8 °C 34395 hPa Calm   2.6 km/h 89 % 0 mm
08:07 -12.8 °C -13.8 °C 34395 hPa Calm   2.6 km/h 89 % 0 mm
08:12 -12.9 °C -13.9 °C 34395 hPa Calm   2.6 km/h 88 % 0 mm
08:22 -12.9 °C -13.9 °C 34395 hPa Calm   2.6 km/h 89 % 0 mm
08:32 -12.9 °C -13.8 °C 34395 hPa Calm   5.1 km/h 90 % 0 mm
08:37 -12.8 °C -13.7 °C 34405.1 hPa Calm   2.6 km/h 90 % 0 mm
08:42 -12.7 °C -13.6 °C 34395 hPa Calm   2.6 km/h 90 % 0 mm
08:47 -12.6 °C -13.6 °C 34405.1 hPa Calm   2.6 km/h 89 % 0 mm
08:52 -12.6 °C -13.6 °C 34405.1 hPa Calm   2.6 km/h 88 % 0 mm
09:02 -12.4 °C -13.4 °C 34395 hPa Calm   2.6 km/h 88 % 0 mm
09:12 -12.3 °C -13.4 °C 34395 hPa Calm   2.6 km/h 87 % 0 mm
09:17 -12.2 °C -13.2 °C 34405.1 hPa Calm   2.6 km/h 89 % 0 mm
09:22 -12.1 °C -13.1 °C 34405.1 hPa Calm   2.6 km/h 88 % 0 mm
09:32 -11.6 °C -12.8 °C 34395 hPa Calm     86 % 0 mm
09:42 -11 °C -12.8 °C 34395 hPa Calm     81 % 0 mm
09:47 -10.9 °C -12.8 °C 34395 hPa Calm   2.6 km/h 79 % 0 mm
09:52 -10.7 °C -12.8 °C 34395 hPa Calm   2.6 km/h 77 % 0 mm
10:02 -10.3 °C -12.6 °C 34395 hPa Calm   2.6 km/h 76 % 0 mm
10:07 -10.3 °C -12.7 °C 34395 hPa East 5.1 km/h 5.1 km/h 75 % 0 mm
10:12 -10.3 °C -12.8 °C 34384.8 hPa Calm   2.6 km/h 74 % 0 mm
10:17 -10.2 °C -12.7 °C 34384.8 hPa Calm   7.7 km/h 74 % 0 mm
10:22 -10 °C -12.6 °C 34384.8 hPa Calm   7.7 km/h 74 % 0 mm
10:32 -9.7 °C -12.6 °C 34384.8 hPa South 2.6 km/h 5.1 km/h 71 % 0 mm
10:42 -9.7 °C -12.4 °C 34384.8 hPa Calm   5.1 km/h 73 % 0 mm
10:52 -9.5 °C -12.3 °C 34384.8 hPa Calm   7.7 km/h 72 % 0 mm
11:02 -9.3 °C -12.2 °C 34384.8 hPa SSE 2.6 km/h 5.1 km/h 71 % 0 mm
11:07 -9.3 °C -12.2 °C 34384.8 hPa SE 2.6 km/h 10.3 km/h 71 % 0 mm
11:12 -9.1 °C -12 °C 34384.8 hPa Calm   10.3 km/h 71 % 0 mm
11:17 -8.9 °C -11.9 °C 34371.3 hPa SE 2.6 km/h 7.7 km/h 71 % 0 mm
11:22 -8.8 °C -11.8 °C 34371.3 hPa SE 2.6 km/h 7.7 km/h 70 % 0 mm
11:32 -8.7 °C -11.8 °C 34371.3 hPa Calm   5.1 km/h 70 % 0 mm
11:42 -8.4 °C -11.4 °C 34371.3 hPa Calm   7.7 km/h 71 % 0 mm
11:52 -8.2 °C -11.5 °C 34371.3 hPa South 5.1 km/h 7.7 km/h 68 % 0 mm
11:57 -7.9 °C -11.3 °C 34371.3 hPa SSE 2.6 km/h 10.3 km/h 68 % 0 mm
12:02 -7.7 °C -11.2 °C 34371.3 hPa Calm   10.3 km/h 67 % 0 mm
12:07 -7.7 °C -11.4 °C 34361.1 hPa SSW 10.3 km/h 12.9 km/h 65 % 0 mm
12:12 -7.7 °C -11.1 °C 34361.1 hPa SSW 5.1 km/h 12.9 km/h 67 % 0 mm
12:17 -7.5 °C -11.1 °C 34361.1 hPa SSW 2.6 km/h 15.6 km/h 66 % 0 mm
12:22 -7.4 °C -11.2 °C 34361.1 hPa Calm   15.6 km/h 64 % 0 mm
12:32 -7.2 °C -11.2 °C 34361.1 hPa SE 5.1 km/h 15.6 km/h 63 % 0 mm
12:42 -7 °C -11 °C 34361.1 hPa Calm   12.9 km/h 63 % 0 mm
12:47 -6.8 °C -11 °C 34361.1 hPa Calm   18.2 km/h 62 % 0 mm
12:52 -6.8 °C -11 °C 34347.6 hPa NNE 7.7 km/h 18.2 km/h 62 % 0 mm
12:57 -6.8 °C -11 °C 34347.6 hPa Calm   12.9 km/h 62 % 0 mm
13:02 -6.8 °C -10.8 °C 34347.6 hPa Calm   12.9 km/h 63 % 0 mm
13:07 -6.6 °C -10.9 °C 34347.6 hPa Calm   10.3 km/h 61 % 0 mm
13:12 -6.5 °C -10.9 °C 34347.6 hPa Calm   10.3 km/h 60 % 0 mm
13:17 -6.4 °C -10.9 °C 34347.6 hPa Calm   10.3 km/h 60 % 0 mm
13:22 -6.3 °C -10.9 °C 34347.6 hPa Calm   10.3 km/h 59 % 0 mm
13:32 -6.3 °C -10.9 °C 34337.4 hPa ENE 2.6 km/h 10.3 km/h 59 % 0 mm
13:42 -6.3 °C -11.1 °C 34337.4 hPa ESE 7.7 km/h 7.7 km/h 58 % 0 mm
13:47 -6.4 °C -11.1 °C 34337.4 hPa ENE 10.3 km/h 10.3 km/h 59 % 0 mm
13:57 -6.3 °C -10.7 °C 34327.3 hPa Calm   12.9 km/h 60 % 0 mm
14:02 -6.2 °C -10.9 °C 34327.3 hPa ESE 5.1 km/h 12.9 km/h 58 % 0 mm
14:12 -6.1 °C -11 °C 34327.3 hPa Calm   10.3 km/h 57 % 0 mm
14:17 -5.7 °C -10.9 °C 34313.7 hPa Calm   10.3 km/h 55 % 0 mm
14:22 -5.7 °C -10.8 °C 34313.7 hPa Calm   10.3 km/h 56 % 0 mm
14:32 -5.5 °C -10.8 °C 34313.7 hPa NE 2.6 km/h 12.9 km/h 55 % 0 mm
14:42 -5.4 °C -10.7 °C 34303.6 hPa ESE 7.7 km/h 12.9 km/h 55 % 0 mm
14:52 -5.4 °C -10.8 °C 34303.6 hPa SE 5.1 km/h 18.2 km/h 54 % 0 mm
15:02 -5.3 °C -10.8 °C 34303.6 hPa ESE 2.6 km/h 18.2 km/h 54 % 0 mm
15:07 -5.4 °C -11.1 °C 34303.6 hPa Calm   15.6 km/h 52 % 0 mm
15:12 -5.3 °C -11.2 °C 34303.6 hPa Calm   15.6 km/h 51 % 0 mm
15:17 -5.3 °C -11 °C 34303.6 hPa SE 2.6 km/h 10.3 km/h 52 % 0 mm
15:22 -5.4 °C -11.1 °C 34303.6 hPa Calm   10.3 km/h 52 % 0 mm
15:32 -5.4 °C -11.5 °C 34303.6 hPa ESE 10.3 km/h 10.3 km/h 50 % 0 mm
15:42 -5.4 °C -10.9 °C 34293.4 hPa ENE 10.3 km/h 10.3 km/h 54 % 0 mm
15:52 -5.7 °C -10.8 °C 34293.4 hPa ESE 12.9 km/h 20.8 km/h 56 % 0 mm
16:02 -5.8 °C -10.9 °C 34293.4 hPa SSE 7.7 km/h 20.8 km/h 56 % 0 mm
16:12 -5.7 °C -10.7 °C 34293.4 hPa ESE 5.1 km/h 18.2 km/h 57 % 0 mm
16:17 -5.8 °C -10.7 °C 34279.9 hPa East 7.7 km/h 23.3 km/h 57 % 0 mm
16:22 -5.8 °C -10.6 °C 34279.9 hPa SE 12.9 km/h 23.3 km/h 58 % 0 mm
16:32 -5.9 °C -10.7 °C 34279.9 hPa ENE 5.1 km/h 23.3 km/h 58 % 0 mm
16:42 -5.8 °C -10.6 °C 34279.9 hPa ESE 7.7 km/h 15.6 km/h 58 % 0 mm
16:47 -5.7 °C -10.7 °C 34269.7 hPa ENE 12.9 km/h 18.2 km/h 57 % 0 mm
16:52 -5.7 °C -10.5 °C 34269.7 hPa East 5.1 km/h 18.2 km/h 58 % 0 mm
17:02 -5.6 °C -10.4 °C 34269.7 hPa East 7.7 km/h 18.2 km/h 58 % 0 mm
17:12 -5.6 °C -10.7 °C 34269.7 hPa East 5.1 km/h 15.6 km/h 56 % 0 mm
17:17 -5.7 °C -10.8 °C 34269.7 hPa ENE 7.7 km/h 12.9 km/h 56 % 0 mm
17:22 -5.6 °C -10.7 °C 34269.7 hPa ENE 2.6 km/h 12.9 km/h 56 % 0 mm
17:32 -5.7 °C -10.7 °C 34269.7 hPa East 2.6 km/h 15.6 km/h 57 % 0 mm
17:42 -5.9 °C -10.7 °C 34269.7 hPa ESE 2.6 km/h 15.6 km/h 58 % 0 mm
17:52 -6 °C -10.6 °C 34269.7 hPa East 2.6 km/h 10.3 km/h 59 % 0 mm
17:57 -6 °C -10.6 °C 34269.7 hPa East 2.6 km/h 10.3 km/h 59 % 0 mm
18:02 -6.1 °C -10.7 °C 34269.7 hPa ENE 7.7 km/h 10.3 km/h 59 % 0 mm
18:12 -6.2 °C -10.7 °C 34256.2 hPa Calm   10.3 km/h 60 % 0 mm
18:17 -6.3 °C -10.6 °C 34256.2 hPa East 7.7 km/h 12.9 km/h 61 % 0 mm
18:22 -6.3 °C -10.6 °C 34269.7 hPa Calm   12.9 km/h 61 % 0 mm
18:32 -6.3 °C -10.7 °C 34256.2 hPa East 2.6 km/h 15.6 km/h 61 % 0 mm
18:42 -6.5 °C -10.7 °C 34256.2 hPa East 10.3 km/h 12.9 km/h 62 % 0 mm
18:52 -6.6 °C -10.7 °C 34256.2 hPa East 2.6 km/h 10.3 km/h 63 % 0 mm
18:57 -6.7 °C -10.6 °C 34256.2 hPa ENE 5.1 km/h 12.9 km/h 64 % 0 mm
19:02 -6.8 °C -10.6 °C 34256.2 hPa ENE 2.6 km/h 12.9 km/h 65 % 0 mm
19:12 -7.1 °C -10.7 °C 34246 hPa ENE 2.6 km/h 12.9 km/h 66 % 0 mm
19:17 -7.2 °C -10.7 °C 34256.2 hPa NE 5.1 km/h 12.9 km/h 67 % 0 mm
19:22 -7.3 °C -10.6 °C 34246 hPa ENE 5.1 km/h 12.9 km/h 68 % 0 mm
19:32 -7.4 °C -10.7 °C 34256.2 hPa NE 7.7 km/h 10.3 km/h 69 % 0 mm
19:37 -7.6 °C -10.8 °C 34256.2 hPa NE 7.7 km/h 10.3 km/h 69 % 0 mm
19:42 -7.6 °C -10.7 °C 34256.2 hPa ENE 7.7 km/h 12.9 km/h 70 % 0 mm
19:47 -7.7 °C -10.8 °C 34256.2 hPa ENE 7.7 km/h 12.9 km/h 70 % 0 mm
19:52 -7.8 °C -10.8 °C 34256.2 hPa ENE 2.6 km/h 12.9 km/h 71 % 0 mm
20:02 -7.9 °C -10.9 °C 34256.2 hPa NE 10.3 km/h 12.9 km/h 71 % 0 mm
20:12 -7.9 °C -10.8 °C 34246 hPa ENE 7.7 km/h 12.9 km/h 71 % 0 mm
20:17 -7.9 °C -10.9 °C 34246 hPa NE 7.7 km/h 12.9 km/h 71 % 0 mm
20:22 -8.1 °C -10.9 °C 34246 hPa NE 5.1 km/h 12.9 km/h 72 % 0 mm
20:32 -8.2 °C -10.9 °C 34256.2 hPa ENE 5.1 km/h 12.9 km/h 73 % 0 mm
20:37 -8.2 °C -10.9 °C 34256.2 hPa ENE 5.1 km/h 12.9 km/h 73 % 0 mm
20:42 -8.3 °C -10.9 °C 34256.2 hPa ENE 10.3 km/h 12.9 km/h 74 % 0 mm
20:47 -8.3 °C -10.9 °C 34256.2 hPa Calm   12.9 km/h 74 % 0 mm
20:52 -8.3 °C -10.9 °C 34256.2 hPa ENE 10.3 km/h 15.6 km/h 74 % 0 mm
20:57 -8.4 °C -11 °C 34256.2 hPa ENE 10.3 km/h 15.6 km/h 74 % 0 mm
21:07 -8.3 °C -10.9 °C 34256.2 hPa ENE 15.6 km/h 18.2 km/h 74 % 0 mm
21:12 -8.3 °C -10.9 °C 34256.2 hPa ENE 12.9 km/h 18.2 km/h 74 % 0 mm
21:22 -8.4 °C -10.9 °C 34269.7 hPa ESE 2.6 km/h 18.2 km/h 75 % 0 mm
21:27 -8.4 °C -10.9 °C 34256.2 hPa East 7.7 km/h 18.2 km/h 75 % 0 mm
21:32 -8.4 °C -10.9 °C 34269.7 hPa East 2.6 km/h 12.9 km/h 75 % 0 mm
21:37 -8.5 °C -11 °C 34269.7 hPa Calm   10.3 km/h 75 % 0 mm
21:42 -8.6 °C -10.9 °C 34269.7 hPa Calm   10.3 km/h 76 % 0 mm
21:47 -8.7 °C -11.1 °C 34269.7 hPa Calm   7.7 km/h 76 % 0 mm
21:57 -9.1 °C -11.1 °C 34269.7 hPa Calm   2.6 km/h 79 % 0 mm
22:02 -9.1 °C -11.1 °C 34279.9 hPa Calm   2.6 km/h 79 % 0 mm
22:12 -8.8 °C -10.9 °C 34269.7 hPa NE 2.6 km/h 5.1 km/h 78 % 0 mm
22:17 -8.8 °C -10.9 °C 34269.7 hPa Calm   5.1 km/h 78 % 0 mm
22:22 -8.8 °C -10.9 °C 34269.7 hPa Calm   5.1 km/h 78 % 0 mm
22:32 -9 °C -11 °C 34269.7 hPa East 2.6 km/h 5.1 km/h 79 % 0 mm
22:37 -9 °C -11 °C 34269.7 hPa Calm   7.7 km/h 79 % 0 mm
22:44 -9.1 °C -11.1 °C 34269.7 hPa Calm   7.7 km/h 79 % 0 mm
22:56 -9.3 °C -11.1 °C 34279.9 hPa Calm   2.6 km/h 81 % 0 mm
23:02 -9.6 °C -11.3 °C 34269.7 hPa Calm   2.6 km/h 82 % 0 mm
23:12 -9.6 °C -11.3 °C 34269.7 hPa Calm   2.6 km/h 82 % 0 mm
23:17 -9.6 °C -11.2 °C 34269.7 hPa Calm   2.6 km/h 83 % 0 mm
23:22 -9.3 °C -11 °C 34269.7 hPa Calm   5.1 km/h 82 % 0 mm
23:27 -9.3 °C -11.1 °C 34269.7 hPa Calm   5.1 km/h 81 % 0 mm
23:32 -9.4 °C -11.2 °C 34269.7 hPa Calm   5.1 km/h 81 % 0 mm
23:42 -9.7 °C -11.3 °C 34269.7 hPa Calm   5.1 km/h 83 % 0 mm
23:47 -9.7 °C -11.3 °C 34269.7 hPa Calm   5.1 km/h 83 % 0 mm
23:52 -9.9 °C -11.4 °C 34269.7 hPa Calm   5.1 km/h 83 % 0 mm
23:57 -9.9 °C -11.3 °C 34269.7 hPa Calm   2.6 km/h 85 % 0 mm
Meteo18
Compliments of Weather Underground - 4 mb

Script developed by  Jim McMurry - jmcmurry@mwt.net Adapted for the template by  Wim van der Kuil - Leuven-Template.eu

You find our weather info also at:

European Weather Network

Weather Underground

Equipment we use:

Weather-station
Davis Vue

Weather-program
Meteobridge

Weather-server
Raspberry PI 2 B+

Provider
1 and 1

Davis Vue

Meteobridge

Raspberry PI 2 B+

1 and 1